Time;durP1;ratioP1;P1;durP2;ratioP2;P2;SDS_P1;SDS_P2;PMS_P1;PMS_P2;Temp;Humidity;BMP_temperature;BMP_pressure;BME280_temperature;BME280_humidity;BME280_pressure;Samples;Min_cycle;Max_cycle;Signal;HPM_P1;HPM_P2
2020/12/28 00:00:47;;;;;;;31.75;16.92;;;1.40;73.40;;;;;;5055610;28;20120;-43
2020/12/28 00:03:12;;;;;;;32.10;16.88;;;1.40;73.30;;;;;;5055033;28;20159;-42
2020/12/28 00:05:38;;;;;;;28.48;15.77;;;1.50;73.10;;;;;;5054456;28;20055;-43
2020/12/28 00:08:04;;;;;;;31.33;17.98;;;1.50;73.00;;;;;;5055639;28;20373;-43
2020/12/28 00:10:30;;;;;;;28.83;16.95;;;1.50;72.80;;;;;;5055168;28;20024;-43
2020/12/28 00:12:55;;;;;;;28.35;16.25;;;1.50;72.80;;;;;;5054532;28;20328;-42
2020/12/28 00:15:28;;;;;;;28.60;16.45;;;1.60;72.80;;;;;;5056177;28;20033;-42
2020/12/28 00:17:56;;;;;;;27.95;15.80;;;1.60;72.70;;;;;;5056605;28;20434;-42
2020/12/28 00:20:24;;;;;;;26.25;14.88;;;1.60;72.50;;;;;;5055988;28;20025;-42
2020/12/28 00:22:50;;;;;;;29.17;16.15;;;1.60;72.50;;;;;;5056542;28;20029;-42
2020/12/28 00:25:22;;;;;;;27.85;14.98;;;1.70;72.30;;;;;;5056279;28;20307;-42
2020/12/28 00:27:48;;;;;;;28.17;15.82;;;1.70;72.20;;;;;;5056244;28;20029;-42
2020/12/28 00:30:14;;;;;;;28.27;15.40;;;1.70;72.10;;;;;;5056294;28;20075;-42
2020/12/28 00:32:40;;;;;;;26.35;15.55;;;1.70;71.80;;;;;;5056204;28;20056;-42
2020/12/28 00:35:07;;;;;;;24.88;14.27;;;1.70;71.60;;;;;;5055919;28;20414;-42
2020/12/28 00:37:33;;;;;;;26.42;15.35;;;1.70;71.50;;;;;;5055923;28;20132;-42
2020/12/28 00:39:59;;;;;;;29.45;16.00;;;1.70;71.50;;;;;;5055988;28;20456;-42
2020/12/28 00:42:25;;;;;;;28.92;16.48;;;1.60;71.80;;;;;;5055489;28;20035;-42
2020/12/28 00:44:51;;;;;;;29.85;17.60;;;1.60;71.40;;;;;;5056321;28;20242;-43
2020/12/28 00:47:17;;;;;;;31.77;16.98;;;1.60;71.40;;;;;;5056012;28;20043;-43
2020/12/28 00:49:43;;;;;;;27.65;16.83;;;1.60;71.60;;;;;;5056257;28;20453;-43
2020/12/28 00:52:09;;;;;;;30.92;16.60;;;1.70;72.20;;;;;;5055956;28;20098;-43
2020/12/28 00:54:35;;;;;;;28.20;15.20;;;1.70;71.70;;;;;;5056212;28;20076;-43
2020/12/28 00:57:01;;;;;;;27.23;15.43;;;1.70;71.60;;;;;;5055603;28;20040;-43
2020/12/28 00:59:27;;;;;;;23.13;14.10;;;1.70;71.60;;;;;;5056602;28;20081;-43
2020/12/28 01:01:54;;;;;;;25.35;14.20;;;1.70;71.50;;;;;;5056149;28;20120;-43
2020/12/28 01:04:20;;;;;;;27.88;14.35;;;1.70;71.50;;;;;;5055723;28;20029;-42
2020/12/28 01:06:45;;;;;;;22.35;12.98;;;1.70;71.50;;;;;;5056008;28;20031;-43
2020/12/28 01:09:11;;;;;;;23.45;13.90;;;1.80;71.60;;;;;;5056244;28;20118;-43
2020/12/28 01:11:37;;;;;;;24.38;13.55;;;1.80;71.50;;;;;;5055300;28;20181;-44
2020/12/28 01:14:03;;;;;;;24.95;14.07;;;1.80;71.30;;;;;;5055496;28;20060;-42
2020/12/28 01:16:28;;;;;;;23.92;14.40;;;1.80;71.30;;;;;;5054940;28;20128;-43
2020/12/28 01:18:54;;;;;;;24.65;14.05;;;1.80;71.20;;;;;;5056176;28;20049;-42
2020/12/28 01:21:21;;;;;;;22.73;13.45;;;1.80;71.20;;;;;;5054916;28;20023;-43
2020/12/28 01:23:46;;;;;;;25.25;14.27;;;1.80;71.10;;;;;;5056239;28;20035;-42
2020/12/28 01:26:17;;;;;;;24.70;14.20;;;1.80;71.00;;;;;;5054083;28;20171;-43
2020/12/28 01:28:44;;;;;;;27.35;15.05;;;1.70;70.90;;;;;;5054096;28;20041;-42
2020/12/28 01:31:10;;;;;;;29.08;13.82;;;1.70;70.90;;;;;;5053462;28;20025;-43
2020/12/28 01:33:36;;;;;;;27.25;13.80;;;1.70;70.90;;;;;;5054001;28;20044;-43
2020/12/28 01:36:02;;;;;;;31.15;14.55;;;1.70;70.80;;;;;;5053517;28;20021;-43
2020/12/28 01:38:28;;;;;;;28.92;15.50;;;1.70;70.70;;;;;;5054042;28;20033;-42
2020/12/28 01:40:53;;;;;;;26.83;15.70;;;1.70;70.80;;;;;;5054102;28;20039;-42
2020/12/28 01:43:19;;;;;;;27.00;15.77;;;1.70;70.80;;;;;;5055377;28;20029;-43
2020/12/28 01:45:45;;;;;;;30.30;15.57;;;1.60;70.80;;;;;;5055210;28;20032;-43
2020/12/28 01:48:11;;;;;;;28.00;15.98;;;1.60;70.90;;;;;;5055625;28;20044;-42
2020/12/28 01:50:37;;;;;;;31.77;16.67;;;1.60;71.00;;;;;;5054484;28;20021;-43
2020/12/28 01:53:03;;;;;;;30.08;16.58;;;1.60;71.00;;;;;;5055486;28;20047;-42
2020/12/28 01:55:31;;;;;;;36.97;18.58;;;1.60;70.90;;;;;;5054879;28;20040;-42
2020/12/28 01:57:57;;;;;;;32.50;16.42;;;1.60;70.80;;;;;;5055088;28;20037;-43
2020/12/28 02:00:22;;;;;;;28.30;15.85;;;1.60;70.90;;;;;;5054832;28;20039;-43
2020/12/28 02:02:49;;;;;;;36.00;17.90;;;1.70;71.00;;;;;;5055457;28;20029;-42
2020/12/28 02:05:15;;;;;;;29.02;16.77;;;1.70;71.10;;;;;;5054819;28;20128;-42
2020/12/28 02:07:42;;;;;;;30.35;16.10;;;1.70;71.00;;;;;;5055208;28;20339;-44
2020/12/28 02:10:09;;;;;;;27.15;15.52;;;1.70;70.90;;;;;;5055319;28;20064;-42
2020/12/28 02:12:36;;;;;;;30.35;15.98;;;1.80;70.90;;;;;;5054789;28;20080;-42
2020/12/28 02:15:03;;;;;;;30.25;16.67;;;1.80;70.60;;;;;;5054900;28;20039;-43
2020/12/28 02:17:29;;;;;;;26.58;15.95;;;1.70;70.60;;;;;;5054459;28;20442;-43
2020/12/28 02:19:55;;;;;;;29.02;15.02;;;1.70;70.60;;;;;;5054748;28;20021;-43
2020/12/28 02:22:21;;;;;;;27.08;15.65;;;1.80;70.70;;;;;;5054982;28;20510;-43
2020/12/28 02:24:46;;;;;;;30.23;15.50;;;1.80;70.50;;;;;;5054969;28;20035;-43
2020/12/28 02:27:12;;;;;;;29.02;14.88;;;1.70;70.40;;;;;;5055891;28;20048;-43
2020/12/28 02:29:38;;;;;;;25.75;14.73;;;1.70;70.40;;;;;;5058446;28;20056;-42
2020/12/28 02:32:03;;;;;;;29.02;14.05;;;1.70;70.40;;;;;;5058319;28;20025;-43
2020/12/28 02:34:29;;;;;;;28.10;14.63;;;1.70;70.30;;;;;;5058705;28;20033;-44
2020/12/28 02:36:55;;;;;;;29.25;15.45;;;1.70;70.40;;;;;;5058127;28;20032;-44
2020/12/28 02:39:20;;;;;;;27.90;15.05;;;1.70;70.30;;;;;;5058686;28;20143;-43
2020/12/28 02:41:46;;;;;;;27.30;14.05;;;1.70;70.20;;;;;;5056445;28;20033;-43
2020/12/28 02:44:12;;;;;;;27.55;14.65;;;1.60;70.20;;;;;;5057258;28;20040;-43
2020/12/28 02:46:37;;;;;;;26.58;14.52;;;1.60;70.20;;;;;;5057268;28;20029;-43
2020/12/28 02:49:03;;;;;;;25.40;14.35;;;1.60;70.30;;;;;;5056693;28;20025;-43
2020/12/28 02:51:29;;;;;;;26.90;14.65;;;1.60;70.30;;;;;;5056126;28;20040;-45
2020/12/28 02:53:54;;;;;;;27.00;14.98;;;1.60;70.30;;;;;;5056437;28;20021;-43
2020/12/28 02:56:20;;;;;;;26.77;15.52;;;1.60;70.40;;;;;;5056919;28;20339;-44
2020/12/28 02:58:45;;;;;;;27.13;15.10;;;1.60;70.60;;;;;;5058843;28;20040;-43
2020/12/28 03:01:11;;;;;;;28.98;14.93;;;1.60;70.60;;;;;;5057809;28;20036;-43
2020/12/28 03:03:37;;;;;;;25.05;13.55;;;1.60;70.60;;;;;;5068964;28;20178;-44
2020/12/28 03:06:03;;;;;;;27.02;14.88;;;1.60;70.60;;;;;;5076369;28;20107;-43
2020/12/28 03:08:29;;;;;;;27.40;14.90;;;1.60;70.60;;;;;;5077286;28;20050;-43
2020/12/28 03:10:54;;;;;;;32.10;14.90;;;1.60;70.70;;;;;;5076093;28;20055;-43
2020/12/28 03:13:20;;;;;;;25.50;14.40;;;1.60;70.70;;;;;;5077025;28;20057;-43
2020/12/28 03:15:46;;;;;;;25.73;14.23;;;1.60;70.80;;;;;;5076714;28;20078;-43
2020/12/28 03:18:11;;;;;;;28.27;14.82;;;1.70;70.70;;;;;;5076474;28;20627;-44
2020/12/28 03:20:37;;;;;;;28.70;15.73;;;1.70;70.60;;;;;;5075797;28;20094;-44
2020/12/28 03:23:03;;;;;;;31.83;15.02;;;1.70;70.50;;;;;;5076811;28;20064;-43
2020/12/28 03:25:29;;;;;;;29.45;15.55;;;1.80;70.60;;;;;;5075847;28;20108;-44
2020/12/28 03:27:54;;;;;;;31.88;16.15;;;1.80;70.50;;;;;;5092370;28;20032;-44
2020/12/28 03:30:20;;;;;;;31.08;17.02;;;1.80;70.50;;;;;;5075883;28;20027;-45
2020/12/28 03:32:46;;;;;;;26.27;16.17;;;1.90;70.40;;;;;;5074168;28;20031;-43
2020/12/28 03:35:12;;;;;;;29.58;16.52;;;1.90;70.40;;;;;;5074809;28;20035;-43
2020/12/28 03:37:37;;;;;;;31.40;16.98;;;1.90;70.40;;;;;;5074332;28;20123;-43
2020/12/28 03:40:04;;;;;;;35.97;16.52;;;1.90;70.20;;;;;;5074693;28;20161;-43
2020/12/28 03:42:30;;;;;;;31.10;16.38;;;1.90;70.00;;;;;;5073870;28;20496;-43
2020/12/28 03:44:55;;;;;;;27.58;15.10;;;1.90;70.00;;;;;;5074653;28;20056;-43
2020/12/28 03:47:21;;;;;;;32.67;15.85;;;2.00;70.10;;;;;;5074651;28;20035;-43
2020/12/28 03:49:47;;;;;;;28.75;14.75;;;2.00;70.10;;;;;;5076234;28;20097;-43
2020/12/28 03:52:13;;;;;;;27.55;14.20;;;2.00;70.00;;;;;;5075714;28;20442;-43
2020/12/28 03:54:39;;;;;;;27.02;14.80;;;2.10;70.10;;;;;;5075354;28;20032;-43
2020/12/28 03:57:05;;;;;;;23.45;13.35;;;2.10;69.80;;;;;;5075163;28;20020;-44
2020/12/28 03:59:30;;;;;;;22.15;13.65;;;2.10;69.70;;;;;;5076191;28;20032;-45
2020/12/28 04:01:56;;;;;;;25.55;14.52;;;2.10;69.80;;;;;;5074971;28;20044;-43
2020/12/28 04:04:22;;;;;;;25.13;13.27;;;2.10;69.70;;;;;;5075459;28;20111;-44
2020/12/28 04:06:47;;;;;;;24.60;13.80;;;2.10;69.60;;;;;;5074857;28;20048;-44
2020/12/28 04:09:13;;;;;;;23.80;13.65;;;2.10;69.40;;;;;;5075285;28;20312;-44
2020/12/28 04:11:40;;;;;;;25.90;13.13;;;2.10;69.30;;;;;;5075319;28;20017;-43
2020/12/28 04:14:05;;;;;;;24.45;12.73;;;2.10;69.40;;;;;;5075399;28;20311;-41
2020/12/28 04:16:31;;;;;;;29.08;15.75;;;2.10;69.50;;;;;;5074279;28;20414;-43
2020/12/28 04:18:57;;;;;;;22.30;13.30;;;2.20;69.50;;;;;;5074919;28;20078;-45
2020/12/28 04:21:23;;;;;;;21.80;13.20;;;2.20;69.40;;;;;;5075420;28;20070;-42
2020/12/28 04:23:48;;;;;;;23.13;13.45;;;2.20;69.30;;;;;;5075417;28;20024;-42
2020/12/28 04:26:14;;;;;;;23.88;12.73;;;2.20;69.20;;;;;;5074736;28;20021;-43
2020/12/28 04:28:41;;;;;;;28.67;16.48;;;2.20;69.10;;;;;;5074343;28;20083;-43
2020/12/28 04:31:12;;;;;;;31.63;16.25;;;2.20;69.10;;;;;;5074571;28;20341;-43
2020/12/28 04:33:38;;;;;;;40.08;17.65;;;2.20;69.00;;;;;;5075909;28;20128;-42
2020/12/28 04:36:04;;;;;;;31.40;15.93;;;2.20;69.10;;;;;;5074713;28;20028;-42
2020/12/28 04:38:30;;;;;;;24.98;14.30;;;2.30;69.20;;;;;;5075850;28;20040;-43
2020/12/28 04:40:57;;;;;;;31.27;16.23;;;2.30;69.00;;;;;;5075083;28;20021;-43
2020/12/28 04:43:26;;;;;;;23.02;13.27;;;2.30;69.00;;;;;;5076165;28;20118;-42
2020/12/28 04:46:03;;;;;;;31.90;15.38;;;2.30;69.00;;;;;;5075635;28;20024;-43
2020/12/28 04:48:33;;;;;;;31.13;15.88;;;2.30;68.90;;;;;;5076348;28;20082;-42
2020/12/28 04:51:03;;;;;;;24.33;12.60;;;2.30;68.90;;;;;;5075332;28;20322;-42
2020/12/28 04:53:30;;;;;;;20.75;12.27;;;2.40;68.90;;;;;;5075832;28;20426;-43
2020/12/28 04:55:56;;;;;;;23.55;12.35;;;2.40;68.90;;;;;;5075322;28;20020;-42
2020/12/28 04:58:21;;;;;;;25.13;14.02;;;2.40;68.90;;;;;;5075134;28;20380;-43
2020/12/28 05:00:55;;;;;;;24.65;13.60;;;2.40;68.90;;;;;;5074183;28;20016;-43
2020/12/28 05:03:24;;;;;;;27.10;14.07;;;2.40;68.80;;;;;;5074359;28;20035;-42
2020/12/28 05:05:49;;;;;;;27.63;14.98;;;2.40;69.00;;;;;;5073568;28;20024;-43
2020/12/28 05:08:17;;;;;;;29.33;17.23;;;2.40;69.20;;;;;;5074820;28;20103;-42
2020/12/28 05:10:43;;;;;;;31.13;17.23;;;2.40;69.40;;;;;;5074216;28;20130;-43
2020/12/28 05:13:10;;;;;;;30.55;18.33;;;2.40;69.40;;;;;;5075011;28;20056;-44
2020/12/28 05:15:49;;;;;;;35.75;20.52;;;2.40;69.50;;;;;;5075383;28;20030;-43
2020/12/28 05:18:19;;;;;;;40.78;21.13;;;2.40;69.60;;;;;;5075570;28;20358;-43
2020/12/28 05:20:49;;;;;;;40.22;21.77;;;2.40;70.20;;;;;;5075192;28;20341;-43
2020/12/28 05:23:16;;;;;;;34.22;20.50;;;2.40;69.80;;;;;;5075448;28;20032;-43
2020/12/28 05:25:47;;;;;;;36.72;19.88;;;2.40;69.80;;;;;;5075662;28;20322;-43
2020/12/28 05:28:26;;;;;;;37.00;21.17;;;2.30;69.80;;;;;;5075479;28;20040;-43
2020/12/28 05:30:52;;;;;;;48.78;26.35;;;2.30;69.80;;;;;;5074955;28;20131;-42
2020/12/28 05:33:18;;;;;;;71.80;36.95;;;2.30;70.00;;;;;;5075488;28;20025;-42
2020/12/28 05:35:45;;;;;;;49.88;29.98;;;2.30;70.10;;;;;;5075301;28;20043;-43
2020/12/28 05:38:12;;;;;;;59.72;35.42;;;2.30;70.20;;;;;;5074932;28;20698;-42
2020/12/28 05:40:39;;;;;;;43.03;23.33;;;2.30;70.40;;;;;;5074439;28;20070;-42
2020/12/28 05:43:05;;;;;;;45.03;29.60;;;2.30;70.20;;;;;;5076032;28;20029;-42
2020/12/28 05:45:32;;;;;;;37.33;21.88;;;2.30;70.20;;;;;;5074638;28;20028;-42
2020/12/28 05:47:59;;;;;;;37.05;21.40;;;2.30;70.20;;;;;;5075552;28;20024;-41
2020/12/28 05:50:29;;;;;;;42.50;22.23;;;2.20;70.20;;;;;;5074196;28;20247;-43
2020/12/28 05:53:00;;;;;;;38.50;21.33;;;2.20;70.20;;;;;;5073943;28;20406;-42
2020/12/28 05:55:28;;;;;;;43.55;20.90;;;2.20;70.30;;;;;;5073171;28;20101;-42
2020/12/28 05:57:55;;;;;;;40.47;20.60;;;2.20;70.40;;;;;;5074177;28;20044;-42
2020/12/28 06:00:22;;;;;;;36.47;19.55;;;2.20;70.50;;;;;;5074121;28;20032;-43
2020/12/28 06:02:48;;;;;;;34.30;19.67;;;2.20;70.70;;;;;;5077408;28;20032;-41
2020/12/28 06:05:19;;;;;;;38.13;20.75;;;2.20;70.90;;;;;;5077565;28;20031;-42
2020/12/28 06:07:45;;;;;;;;;;;2.20;71.20;;;;;;5078304;28;20033;-42
2020/12/28 06:10:12;;;;;;;32.65;19.25;;;2.20;71.00;;;;;;5078260;28;20261;-43
2020/12/28 06:12:38;;;;;;;32.17;19.77;;;2.10;71.10;;;;;;5077728;28;20059;-41
2020/12/28 06:15:16;;;;;;;39.22;20.38;;;2.10;71.10;;;;;;5076499;28;20028;-41
2020/12/28 06:17:42;;;;;;;34.75;20.35;;;2.20;71.30;;;;;;5071429;28;20078;-41
2020/12/28 06:20:08;;;;;;;38.90;20.98;;;2.10;71.20;;;;;;5076555;28;20044;-42
2020/12/28 06:22:34;;;;;;;40.42;21.35;;;2.20;71.30;;;;;;5074298;28;20027;-41
2020/12/28 06:25:02;;;;;;;34.97;21.45;;;2.10;71.20;;;;;;5074545;28;20020;-41
2020/12/28 06:27:36;;;;;;;51.90;24.60;;;2.20;71.20;;;;;;5074952;28;20102;-41
2020/12/28 06:30:11;;;;;;;41.20;21.45;;;2.10;71.10;;;;;;5075414;28;20020;-41
2020/12/28 06:32:38;;;;;;;45.65;23.45;;;2.10;71.10;;;;;;5075810;28;20024;-41
2020/12/28 06:35:06;;;;;;;37.63;22.05;;;2.10;71.10;;;;;;5077082;28;20109;-42
2020/12/28 06:37:42;;;;;;;39.45;21.02;;;2.10;71.00;;;;;;5076077;28;20335;-40
2020/12/28 06:40:09;;;;;;;37.90;21.02;;;2.10;71.10;;;;;;5078794;28;20025;-40
2020/12/28 06:42:35;;;;;;;42.30;21.90;;;2.10;71.20;;;;;;5077214;28;20072;-40
2020/12/28 06:45:15;;;;;;;33.63;19.88;;;2.20;71.30;;;;;;5095920;28;20067;-41
2020/12/28 06:47:45;;;;;;;34.17;19.90;;;2.10;71.30;;;;;;5079257;28;20032;-41
2020/12/28 06:50:11;;;;;;;37.80;21.80;;;2.10;71.30;;;;;;5068406;28;20025;-42
2020/12/28 06:52:37;;;;;;;42.00;21.40;;;2.20;71.30;;;;;;5075657;28;20421;-41
2020/12/28 06:55:07;;;;;;;42.85;21.77;;;2.20;71.30;;;;;;5077534;28;20024;-42
2020/12/28 06:57:33;;;;;;;42.95;22.00;;;2.20;71.20;;;;;;5077371;28;20028;-41
2020/12/28 06:59:59;;;;;;;47.92;23.10;;;2.30;71.20;;;;;;5080903;28;20025;-41
2020/12/28 07:02:25;;;;;;;37.70;21.50;;;2.30;71.20;;;;;;5077877;28;20434;-41
2020/12/28 07:04:51;;;;;;;49.28;24.13;;;2.30;71.10;;;;;;5076562;28;20035;-41
2020/12/28 07:07:17;;;;;;;65.18;34.17;;;2.30;71.00;;;;;;5075767;28;20025;-42
2020/12/28 07:09:46;;;;;;;44.13;24.42;;;2.40;71.10;;;;;;5078399;28;20032;-42
2020/12/28 07:12:11;;;;;;;35.72;19.88;;;2.40;71.10;;;;;;5079103;28;20038;-41
2020/12/28 07:14:38;;;;;;;33.92;18.50;;;2.40;70.90;;;;;;5071885;28;20131;-41
2020/12/28 07:17:04;;;;;;;34.13;19.45;;;2.40;70.70;;;;;;5061727;28;20423;-41
2020/12/28 07:19:30;;;;;;;39.00;21.02;;;2.40;70.70;;;;;;5086532;28;20040;-41
2020/12/28 07:21:55;;;;;;;38.72;22.23;;;2.40;70.80;;;;;;5085095;28;20074;-42
2020/12/28 07:24:21;;;;;;;41.17;21.75;;;2.50;71.70;;;;;;5078849;28;20032;-42
2020/12/28 07:26:48;;;;;;;51.35;27.33;;;2.50;71.00;;;;;;5076664;28;20073;-40
2020/12/28 07:29:16;;;;;;;53.42;28.52;;;2.50;70.80;;;;;;5078135;28;20072;-39
2020/12/28 07:31:43;;;;;;;57.55;28.67;;;2.50;70.80;;;;;;5087900;28;20322;-40
2020/12/28 07:34:19;;;;;;;47.78;23.58;;;2.60;71.00;;;;;;5093948;28;20036;-40
2020/12/28 07:36:53;;;;;;;68.22;34.17;;;2.60;70.90;;;;;;5089810;28;20020;-40
2020/12/28 07:39:19;;;;;;;95.15;43.80;;;2.70;71.00;;;;;;5078413;28;20048;-39
2020/12/28 11:20:15;;;;;;;36.28;19.20;;;1.70;73.40;;;;;;5111657;27;20419;-38
2020/12/28 11:22:41;;;;;;;38.00;18.77;;;1.70;74.70;;;;;;5112985;28;20059;-39
2020/12/28 11:25:07;;;;;;;41.55;18.42;;;1.70;75.30;;;;;;5113315;28;20070;-40
2020/12/28 11:27:33;;;;;;;31.98;17.38;;;1.80;76.00;;;;;;5112637;28;20495;-40
2020/12/28 11:29:58;;;;;;;33.97;18.50;;;1.90;76.30;;;;;;5113991;28;20035;-40
2020/12/28 11:32:24;;;;;;;42.33;21.60;;;2.00;76.50;;;;;;5111806;28;20059;-40
2020/12/28 11:34:50;;;;;;;38.88;22.50;;;2.10;76.60;;;;;;5113436;28;20031;-40
2020/12/28 11:37:16;;;;;;;34.17;19.67;;;2.30;76.50;;;;;;5112532;28;20349;-40
2020/12/28 11:39:42;;;;;;;28.77;16.40;;;2.40;76.30;;;;;;5113392;28;20055;-40
2020/12/28 11:42:08;;;;;;;31.00;16.13;;;2.50;76.10;;;;;;5112276;28;20063;-41
2020/12/28 11:44:34;;;;;;;34.42;17.17;;;2.60;75.90;;;;;;5113238;28;20307;-39
2020/12/28 11:46:59;;;;;;;32.88;17.45;;;2.70;75.50;;;;;;5108520;28;20028;-40
2020/12/28 11:49:25;;;;;;;32.67;16.52;;;2.70;74.90;;;;;;5102779;28;20036;-40
2020/12/28 11:51:54;;;;;;;34.72;16.73;;;2.80;74.70;;;;;;5092070;28;20020;-41
2020/12/28 11:54:23;;;;;;;33.47;17.75;;;2.90;74.60;;;;;;5091742;28;20422;-40
2020/12/28 11:56:49;;;;;;;31.95;17.15;;;2.90;74.50;;;;;;5091703;28;20020;-41
2020/12/28 11:59:14;;;;;;;34.50;17.63;;;2.90;74.30;;;;;;5092157;28;20101;-40
2020/12/28 12:01:46;;;;;;;28.65;16.45;;;3.00;74.10;;;;;;5091933;28;20387;-40
2020/12/28 12:04:12;;;;;;;32.35;15.98;;;3.00;74.10;;;;;;5092088;28;20032;-40
2020/12/28 12:06:37;;;;;;;30.20;16.02;;;3.00;73.90;;;;;;5092539;28;20115;-41
2020/12/28 12:09:12;;;;;;;48.05;19.02;;;3.10;73.60;;;;;;5092062;28;20028;-40
2020/12/28 12:11:47;;;;;;;33.80;17.27;;;3.10;73.40;;;;;;5091631;28;20020;-41
2020/12/28 12:14:14;;;;;;;31.58;15.77;;;3.10;73.20;;;;;;5091813;28;20039;-41
2020/12/28 12:16:40;;;;;;;38.17;17.15;;;3.10;73.20;;;;;;5090664;28;20023;-41
2020/12/28 12:19:07;;;;;;;33.58;16.88;;;3.10;73.50;;;;;;5090729;28;20036;-40
2020/12/28 12:21:33;;;;;;;32.75;16.10;;;3.10;73.50;;;;;;5098713;28;20040;-40
2020/12/28 12:23:59;;;;;;;31.58;16.80;;;3.10;73.40;;;;;;5112248;28;20038;-40
2020/12/28 12:26:25;;;;;;;22.65;14.02;;;3.10;73.40;;;;;;5111070;28;20114;-40
2020/12/28 12:28:54;;;;;;;29.33;14.13;;;3.20;73.10;;;;;;5112118;28;20104;-40
2020/12/28 12:31:21;;;;;;;29.73;16.83;;;3.20;72.80;;;;;;5098997;28;20028;-40
2020/12/28 12:33:47;;;;;;;24.90;13.25;;;3.20;72.70;;;;;;5091856;28;20032;-40
2020/12/28 12:36:16;;;;;;;25.02;13.00;;;3.20;72.60;;;;;;5089951;28;20571;-40
2020/12/28 12:38:42;;;;;;;25.83;13.15;;;3.20;72.10;;;;;;5096302;28;20044;-40
2020/12/28 12:41:13;;;;;;;21.63;11.73;;;3.10;72.10;;;;;;5090547;28;20521;-41
2020/12/28 12:43:39;;;;;;;25.63;12.52;;;3.10;72.10;;;;;;5092748;28;20075;-40
2020/12/28 12:46:04;;;;;;;27.23;13.32;;;3.10;72.00;;;;;;5097075;28;20054;-41
2020/12/28 12:48:30;;;;;;;26.33;13.43;;;3.10;71.80;;;;;;5097560;28;20032;-40
2020/12/28 12:50:56;;;;;;;25.42;13.02;;;3.10;71.80;;;;;;5096848;28;20051;-41
2020/12/28 12:53:21;;;;;;;24.23;12.45;;;3.10;71.70;;;;;;5098173;28;20032;-40
2020/12/28 12:55:47;;;;;;;25.80;13.35;;;3.00;71.80;;;;;;5096802;28;20429;-41
2020/12/28 12:58:14;;;;;;;29.83;15.00;;;3.00;71.90;;;;;;5093110;28;20055;-39
2020/12/28 13:00:41;;;;;;;25.05;12.43;;;3.00;72.10;;;;;;5085960;28;20024;-40
2020/12/28 13:03:07;;;;;;;29.63;14.18;;;3.00;72.20;;;;;;5077551;28;20388;-41
2020/12/28 13:05:32;;;;;;;30.40;17.17;;;3.00;72.30;;;;;;5077089;28;20024;-41
2020/12/28 13:07:58;;;;;;;46.47;23.77;;;2.90;72.40;;;;;;5077798;28;20029;-41
2020/12/28 13:10:23;;;;;;;48.70;26.85;;;3.00;72.50;;;;;;5077136;28;20334;-41
2020/12/28 13:12:49;;;;;;;30.45;17.80;;;3.00;72.60;;;;;;5097361;28;20076;-41
2020/12/28 13:15:15;;;;;;;33.20;18.60;;;3.00;72.40;;;;;;5097565;28;20020;-41
2020/12/28 13:17:41;;;;;;;23.83;15.32;;;3.00;72.40;;;;;;5097458;28;20339;-41
2020/12/28 13:20:07;;;;;;;31.13;17.02;;;3.00;72.40;;;;;;5096780;28;20056;-39
2020/12/28 13:22:33;;;;;;;29.05;16.30;;;3.00;72.50;;;;;;5097414;28;20023;-40
2020/12/28 13:24:59;;;;;;;26.33;14.25;;;3.00;72.60;;;;;;5097653;28;20024;-39
2020/12/28 13:27:25;;;;;;;26.88;15.80;;;3.10;72.60;;;;;;5096223;28;20478;-41
2020/12/28 13:29:50;;;;;;;21.98;13.07;;;3.00;72.40;;;;;;5097596;28;20506;-39
2020/12/28 13:32:16;;;;;;;23.85;12.95;;;3.00;72.20;;;;;;5096893;28;20031;-41
2020/12/28 13:34:42;;;;;;;26.00;14.90;;;3.00;72.30;;;;;;5097249;28;20434;-40
2020/12/28 13:37:10;;;;;;;25.90;12.95;;;3.00;72.30;;;;;;5096636;28;20103;-41
2020/12/28 13:39:40;;;;;;;27.75;13.40;;;3.00;72.40;;;;;;5095273;28;20036;-40
2020/12/28 13:42:07;;;;;;;21.73;12.48;;;3.00;72.30;;;;;;5094129;28;20110;-40
2020/12/28 13:44:33;;;;;;;27.38;13.10;;;3.00;72.40;;;;;;5095928;28;20067;-41
2020/12/28 13:46:58;;;;;;;25.23;12.77;;;3.00;72.30;;;;;;5094620;28;20463;-41
2020/12/28 13:49:24;;;;;;;29.75;14.27;;;3.00;72.20;;;;;;5095469;28;20036;-41
2020/12/28 13:51:50;;;;;;;24.50;13.45;;;3.00;72.40;;;;;;5095446;28;20111;-41
2020/12/28 13:54:16;;;;;;;28.10;13.38;;;3.00;72.30;;;;;;5096672;28;20066;-40
2020/12/28 13:56:42;;;;;;;27.33;14.10;;;3.00;72.40;;;;;;5095205;28;20386;-41
2020/12/28 13:59:07;;;;;;;24.08;13.50;;;3.00;72.30;;;;;;5097020;28;20299;-41
2020/12/28 14:01:33;;;;;;;27.58;14.63;;;3.00;72.20;;;;;;5096505;28;20028;-41
2020/12/28 14:03:59;;;;;;;23.88;14.07;;;3.00;72.20;;;;;;5096557;28;20428;-40
2020/12/28 14:06:27;;;;;;;21.73;11.95;;;3.00;72.20;;;;;;5095264;28;20024;-41
2020/12/28 14:08:53;;;;;;;25.20;12.68;;;3.00;72.00;;;;;;5089307;28;20032;-40
2020/12/28 14:11:22;;;;;;;23.35;12.50;;;3.00;72.00;;;;;;5079396;28;20074;-41
2020/12/28 14:13:48;;;;;;;24.42;12.93;;;3.00;71.90;;;;;;5087221;28;20039;-41
2020/12/28 14:16:15;;;;;;;23.95;13.40;;;3.00;72.20;;;;;;5075395;28;20341;-41
2020/12/28 14:18:42;;;;;;;27.85;13.93;;;3.00;72.20;;;;;;5075292;28;20057;-40
2020/12/28 14:21:09;;;;;;;29.42;13.25;;;3.00;72.20;;;;;;5074531;28;20023;-40
2020/12/28 14:23:36;;;;;;;25.35;13.52;;;3.00;72.20;;;;;;5076474;28;20028;-40
2020/12/28 14:26:03;;;;;;;27.67;14.27;;;3.00;72.20;;;;;;5074622;28;20016;-40
2020/12/28 14:28:29;;;;;;;28.98;13.95;;;3.00;72.20;;;;;;5076370;28;20028;-40
2020/12/28 14:30:54;;;;;;;23.63;12.90;;;3.00;72.20;;;;;;5075638;28;20044;-41
2020/12/28 14:33:21;;;;;;;23.10;11.68;;;3.00;72.20;;;;;;5076034;28;20036;-39
2020/12/28 14:35:48;;;;;;;22.02;12.73;;;3.00;72.30;;;;;;5080357;28;20509;-40
2020/12/28 14:38:13;;;;;;;22.27;12.63;;;2.90;72.10;;;;;;5080184;28;20438;-39
2020/12/28 14:40:39;;;;;;;23.77;11.63;;;2.90;72.20;;;;;;5074505;28;20036;-41
2020/12/28 14:43:05;;;;;;;24.95;13.02;;;2.90;72.20;;;;;;5075509;28;20048;-40
2020/12/28 14:45:32;;;;;;;21.35;12.73;;;3.00;72.40;;;;;;5074698;28;20070;-40
2020/12/28 14:47:59;;;;;;;21.98;12.10;;;3.00;72.40;;;;;;5074532;28;20048;-39
2020/12/28 14:50:26;;;;;;;23.77;11.45;;;3.00;72.50;;;;;;5073903;28;20459;-40
2020/12/28 14:52:51;;;;;;;27.05;12.68;;;3.00;72.50;;;;;;5075199;28;20418;-39
2020/12/28 14:55:17;;;;;;;21.70;13.07;;;3.00;72.40;;;;;;5074841;28;20034;-40
2020/12/28 14:57:43;;;;;;;27.25;12.02;;;3.00;72.20;;;;;;5075359;28;20062;-40
2020/12/28 15:00:10;;;;;;;22.33;11.73;;;2.90;72.30;;;;;;5076063;28;20083;-41
2020/12/28 15:02:37;;;;;;;28.75;14.48;;;2.90;72.30;;;;;;5074934;28;20039;-41
2020/12/28 15:05:03;;;;;;;26.20;12.07;;;2.90;72.40;;;;;;5076059;28;20025;-40
2020/12/28 15:07:29;;;;;;;21.00;12.05;;;3.00;72.60;;;;;;5074358;28;20035;-41
2020/12/28 15:09:55;;;;;;;25.92;12.55;;;3.00;72.60;;;;;;5074051;28;20020;-39
2020/12/28 15:12:20;;;;;;;25.13;13.32;;;3.00;72.60;;;;;;5073658;28;20081;-41
2020/12/28 15:14:46;;;;;;;22.63;12.85;;;3.00;72.80;;;;;;5074846;28;20031;-40
2020/12/28 15:17:12;;;;;;;23.25;12.55;;;3.00;72.70;;;;;;5073845;28;20029;-41
2020/12/28 15:19:37;;;;;;;25.10;12.88;;;3.00;72.60;;;;;;5074221;28;20048;-40
2020/12/28 15:22:03;;;;;;;23.88;12.45;;;3.00;72.60;;;;;;5074271;28;20060;-41
2020/12/28 15:24:29;;;;;;;24.15;12.25;;;3.00;72.70;;;;;;5074809;28;20084;-40
2020/12/28 15:26:54;;;;;;;24.73;14.13;;;3.00;72.70;;;;;;5074611;28;20020;-40
2020/12/28 15:29:20;;;;;;;23.33;13.05;;;3.00;72.80;;;;;;5073874;28;20039;-39
2020/12/28 15:31:46;;;;;;;28.45;15.52;;;3.00;72.80;;;;;;5073590;28;20016;-40
2020/12/28 15:34:11;;;;;;;33.92;17.45;;;3.00;72.70;;;;;;5073642;28;20043;-39
2020/12/28 15:36:37;;;;;;;22.77;12.30;;;3.00;72.70;;;;;;5074552;28;20024;-40
2020/12/28 15:39:04;;;;;;;24.35;12.40;;;3.00;72.80;;;;;;5074913;28;20303;-39
2020/12/28 15:41:29;;;;;;;24.83;14.45;;;3.10;72.90;;;;;;5074741;28;20021;-40
2020/12/28 15:43:55;;;;;;;27.92;13.38;;;3.10;72.90;;;;;;5075801;28;20196;-39
2020/12/28 15:46:21;;;;;;;29.15;14.73;;;3.10;73.00;;;;;;5073142;28;20024;-40
2020/12/28 15:48:47;;;;;;;27.90;14.25;;;3.10;73.00;;;;;;5079612;28;20035;-39
2020/12/28 15:51:12;;;;;;;23.88;13.77;;;3.10;73.00;;;;;;5092932;28;20384;-41
2020/12/28 15:53:39;;;;;;;28.70;14.02;;;3.10;73.10;;;;;;5093111;28;20028;-39
2020/12/28 15:56:10;;;;;;;26.33;13.85;;;3.10;73.20;;;;;;5093511;28;20271;-39
2020/12/28 15:58:35;;;;;;;27.17;13.88;;;3.10;73.30;;;;;;5093386;28;20071;-39
2020/12/28 16:01:01;;;;;;;26.45;13.55;;;3.10;73.30;;;;;;5093408;28;20070;-41
2020/12/28 16:03:27;;;;;;;28.95;15.52;;;3.10;73.30;;;;;;5095236;28;20036;-40
2020/12/28 16:05:53;;;;;;;24.48;15.25;;;3.20;73.40;;;;;;5096366;28;20027;-41
2020/12/28 16:08:19;;;;;;;26.05;15.05;;;3.20;73.40;;;;;;5099468;28;20114;-39
2020/12/28 16:10:45;;;;;;;25.85;12.98;;;3.20;73.40;;;;;;5098832;28;20019;-39
2020/12/28 16:13:10;;;;;;;24.85;12.65;;;3.20;73.40;;;;;;5098239;28;20028;-39